Airfield :
LOGIN :

Register | Disclaimer

   EN    FR    IT 

 










Legend :    VFR   Marginal VFR   IFR   Intensive IFR   Very Intensive IFR
Visi :
Ceiling :
>= 8 km
>= 3000ft
5 to 8 km
1000 to 3000 ft
1500m to 5 km
500 to 1000 ft
800 to 1500m
200 to 500 ft
< 800m
< 200 ft
Symbols :   Thunderstorms  Fog  Heavy snow  Heavy precipitations  Wind > 20 kt
SIGMETs :     Misc.  Thunderstorms  Icing  Turbulence  Mountain Waves  Volcanic Ashes







- Airport Elevation : 1302 ft
- IATA code : GNB
- Download approach charts


LFLS - Grenoble / St. Geoirs

CURRENT METAR :
  • 231130Z AUTO 32008KT 280V010 CAVOK 20/09 Q1023 NOSIG

EXPIRED METARs :
  • 231100Z AUTO 35009KT 300V030 CAVOK 20/09 Q1023 NOSIG
  • 231030Z AUTO 32007KT 270V010 CAVOK 19/09 Q1023 NOSIG
  • 231000Z AUTO VRB06KT CAVOK 19/08 Q1023 NOSIG
  • 230930Z AUTO 35005KT 300V040 CAVOK 18/07 Q1023 NOSIG
  • 230900Z AUTO 02006KT 330V070 CAVOK 18/07 Q1023 NOSIG
  • 230830Z AUTO 36008KT 320V040 CAVOK 18/08 Q1023 NOSIG

TAF TAF LFLS
Valid from the 23 at 09:00 until the 24 at 09:00 UTC


230800Z 2309/2409 VRB02KT CAVOK
BECMG 2309/2312 36005KT
TEMPO 2312/2320 34010KT
ATIS : +33 4 76 65 55 89
No reported NOTAMs for that airfield.



MET'MAP, your aeronautical weather chart ! - Copyright ORBIFLY December 2007 - Disclaimer

ORBIFLY MET'MAP TEAM :

Programming & Development : Alexandra Zaïnal
Concept & Development : Baudouin d'Aumeries
Co-Development & Prog : Marc-Olivier Méhu
Technical & hardware support : Manuel Goepfert

Contact : metmap@orbifly.com




SOURCES & CREDITS :

   NOAA